Time;durP1;ratioP1;P1;durP2;ratioP2;P2;SDS_P1;SDS_P2;PMS_P1;PMS_P2;Temp;Humidity;BMP_temperature;BMP_pressure;BME280_temperature;BME280_humidity;BME280_pressure;Samples;Min_cycle;Max_cycle;Signal;HPM_P1;HPM_P2
2023/09/21 00:00:15;;;;;;;3.00;1.50;;;;;;;21.00;56.44;98572.38;5046056;28;20040;-81
2023/09/21 00:02:46;;;;;;;3.50;1.75;;;;;;;20.98;56.24;98563.63;5046011;28;20035;-81
2023/09/21 00:05:12;;;;;;;4.22;2.00;;;;;;;20.93;56.50;98561.13;5045176;28;20053;-81
2023/09/21 00:07:38;;;;;;;5.10;1.48;;;;;;;20.85;56.59;98555.44;5045769;28;20051;-80
2023/09/21 00:10:06;;;;;;;4.53;1.67;;;;;;;20.96;56.47;98552.06;5045274;28;20483;-81
2023/09/21 00:12:31;;;;;;;5.78;2.05;;;;;;;20.99;56.27;98546.63;5045197;28;20525;-81
2023/09/21 00:14:58;;;;;;;2.70;1.25;;;;;;;20.92;56.62;98553.97;5045163;28;20040;-81
2023/09/21 00:17:23;;;;;;;4.55;1.63;;;;;;;20.99;56.30;98545.84;5043857;28;20079;-81
2023/09/21 00:19:49;;;;;;;4.30;1.75;;;;;;;20.99;55.72;98543.09;5045941;28;20441;-81
2023/09/21 00:22:15;;;;;;;4.07;1.80;;;;;;;20.95;56.08;98542.97;5044055;28;20041;-81
2023/09/21 00:24:40;;;;;;;3.83;1.90;;;;;;;20.95;56.23;98542.19;5044340;28;20475;-81
2023/09/21 00:27:06;;;;;;;4.70;1.40;;;;;;;20.96;55.93;98532.69;5044469;28;20491;-81
2023/09/21 00:29:31;;;;;;;3.63;1.65;;;;;;;20.91;56.36;98535.75;5045206;28;20041;-81
2023/09/21 00:31:58;;;;;;;4.03;1.47;;;;;;;20.82;56.28;98528.47;5045586;28;20043;-81
2023/09/21 00:34:24;;;;;;;5.75;1.63;;;;;;;20.84;56.27;98525.34;5044844;28;20258;-81
2023/09/21 00:36:49;;;;;;;2.75;1.52;;;;;;;20.79;56.32;98522.88;5045435;28;20091;-81
2023/09/21 00:39:15;;;;;;;4.72;2.03;;;;;;;20.76;56.01;98522.44;5045023;28;20036;-81
2023/09/21 00:41:40;;;;;;;7.80;1.85;;;;;;;20.83;56.43;98523.72;5044796;28;20036;-80
2023/09/21 00:44:07;;;;;;;3.42;1.63;;;;;;;20.76;56.32;98521.63;5044219;28;20973;-81
2023/09/21 00:46:35;;;;;;;4.50;2.22;;;;;;;20.83;56.10;98512.63;5045221;28;20037;-81
2023/09/21 00:49:01;;;;;;;7.78;1.65;;;;;;;20.91;55.72;98497.00;5044808;28;20025;-81
2023/09/21 00:51:27;;;;;;;4.85;2.00;;;;;;;20.94;55.66;98493.47;5043994;28;20037;-81
2023/09/21 00:53:54;;;;;;;9.80;2.70;;;;;;;20.82;55.96;98486.13;5044390;28;20068;-79
2023/09/21 00:56:21;;;;;;;4.43;1.40;;;;;;;20.75;55.86;98486.78;5044559;28;20431;-81
2023/09/21 00:58:50;;;;;;;4.03;1.75;;;;;;;20.78;55.83;98483.28;5045153;28;20058;-81
2023/09/21 01:01:16;;;;;;;3.88;1.10;;;;;;;20.81;55.74;98479.78;5044731;28;20065;-81
2023/09/21 01:03:43;;;;;;;11.38;1.83;;;;;;;20.91;55.68;98474.84;5044423;28;20129;-81
2023/09/21 01:06:12;;;;;;;3.72;1.50;;;;;;;20.95;55.56;98475.69;5044299;28;20111;-81
2023/09/21 01:08:37;;;;;;;5.05;1.80;;;;;;;20.94;55.37;98474.09;5044386;28;20036;-81
2023/09/21 01:11:09;;;;;;;3.83;1.50;;;;;;;20.95;55.14;98467.41;5043529;28;20037;-81
2023/09/21 01:13:35;;;;;;;5.70;1.63;;;;;;;20.85;55.56;98468.75;5043596;28;20044;-80
2023/09/21 01:16:03;;;;;;;8.15;2.03;;;;;;;20.86;55.46;98464.84;5044257;28;20064;-81
2023/09/21 01:18:29;;;;;;;2.95;1.25;;;;;;;20.86;55.26;98468.41;5044184;28;20040;-81
2023/09/21 01:21:00;;;;;;;3.00;1.30;;;;;;;20.86;55.44;98462.88;5043766;28;20060;-83
2023/09/21 01:23:45;;;;;;;5.10;1.73;;;;;;;20.85;55.00;98455.72;5049352;28;20024;-82
2023/09/21 01:26:12;;;;;;;4.25;2.08;;;;;;;20.86;55.39;98462.06;5052062;28;20082;-81
2023/09/21 01:28:38;;;;;;;4.05;1.50;;;;;;;20.80;55.25;98458.81;5052994;28;20032;-81
2023/09/21 01:31:05;;;;;;;9.93;1.80;;;;;;;20.77;55.47;98454.78;5052969;28;20032;-80
2023/09/21 01:33:31;;;;;;;6.85;2.13;;;;;;;20.77;54.95;98448.44;5056539;28;20033;-81
2023/09/21 01:35:56;;;;;;;5.53;1.65;;;;;;;20.86;55.05;98449.03;5053830;28;20029;-81
2023/09/21 01:38:28;;;;;;;3.67;1.03;;;;;;;20.77;55.04;98440.13;5053465;28;20632;-82
2023/09/21 01:40:53;;;;;;;6.30;1.52;;;;;;;20.79;55.17;98435.03;5053226;28;20254;-82
2023/09/21 01:43:18;;;;;;;5.22;1.33;;;;;;;20.72;55.17;98437.69;5053499;28;20025;-81
2023/09/21 01:45:48;;;;;;;2.97;1.60;;;;;;;20.76;55.09;98441.31;5051946;28;20078;-83
2023/09/21 01:48:14;;;;;;;3.53;1.60;;;;;;;20.87;54.69;98428.47;5053400;28;20048;-80
2023/09/21 01:50:43;;;;;;;5.50;2.05;;;;;;;20.90;54.49;98429.72;5053150;28;20382;-81
2023/09/21 01:53:09;;;;;;;5.22;1.85;;;;;;;20.89;54.35;98419.78;5052411;28;20108;-81
2023/09/21 01:55:36;;;;;;;5.63;1.67;;;;;;;20.88;54.02;98427.31;5052772;28;20471;-81
2023/09/21 01:58:03;;;;;;;2.22;1.08;;;;;;;20.85;54.30;98411.41;5053258;28;20112;-80
2023/09/21 02:00:29;;;;;;;4.07;1.77;;;;;;;20.87;54.03;98408.28;5053094;28;20702;-80
2023/09/21 02:02:55;;;;;;;4.03;1.60;;;;;;;20.86;53.86;98415.81;5054579;28;20155;-81
2023/09/21 02:05:21;;;;;;;6.45;2.15;;;;;;;20.77;54.35;98416.03;5052197;28;20713;-80
2023/09/21 02:07:47;;;;;;;4.32;1.40;;;;;;;20.88;53.88;98404.34;5053125;28;20104;-81
2023/09/21 02:10:17;;;;;;;3.95;1.20;;;;;;;20.86;53.96;98404.72;5048951;28;20037;-80
2023/09/21 02:12:54;;;;;;;5.20;1.65;;;;;;;20.76;54.06;98397.81;5048353;28;20041;-80
2023/09/21 02:15:20;;;;;;;7.50;2.08;;;;;;;20.80;53.70;98397.09;5046653;28;20115;-81
2023/09/21 02:17:46;;;;;;;3.90;1.80;;;;;;;20.75;53.80;98401.75;5050776;28;20029;-80
2023/09/21 02:20:16;;;;;;;5.43;2.10;;;;;;;20.70;53.89;98391.00;5049764;28;20033;-80
2023/09/21 02:22:44;;;;;;;6.28;2.10;;;;;;;20.77;53.97;98390.31;5051351;28;20037;-81
2023/09/21 02:25:10;;;;;;;4.88;1.70;;;;;;;20.73;53.92;98387.47;5050882;28;20055;-80
2023/09/21 02:27:46;;;;;;;3.20;1.35;;;;;;;20.76;53.68;98392.28;5053342;28;20180;-80
2023/09/21 02:30:16;;;;;;;4.30;1.30;;;;;;;20.70;53.96;98390.19;5049733;28;20505;-80
2023/09/21 02:32:42;;;;;;;2.33;1.10;;;;;;;20.69;54.07;98386.59;5051365;28;20029;-80
2023/09/21 02:35:16;;;;;;;4.72;1.60;;;;;;;20.74;53.69;98377.19;5052612;28;20041;-80
2023/09/21 02:37:46;;;;;;;3.58;1.40;;;;;;;20.73;54.09;98368.09;5053146;28;20036;-80
2023/09/21 02:40:16;;;;;;;7.20;1.35;;;;;;;20.79;53.62;98373.34;5052712;28;20544;-80
2023/09/21 02:42:43;;;;;;;4.10;1.73;;;;;;;20.74;53.37;98372.47;5052522;28;20055;-80
2023/09/21 02:45:10;;;;;;;2.33;1.05;;;;;;;20.66;53.89;98376.28;5052586;28;20108;-81
2023/09/21 02:47:37;;;;;;;4.55;1.67;;;;;;;20.70;53.91;98376.34;5052904;28;20052;-81
2023/09/21 02:50:09;;;;;;;4.30;1.63;;;;;;;20.61;54.04;98373.78;5052502;28;20472;-81
2023/09/21 02:52:36;;;;;;;9.77;1.75;;;;;;;20.62;54.17;98365.16;5052980;28;20040;-80
2023/09/21 02:55:01;;;;;;;6.28;1.52;;;;;;;20.68;53.43;98367.59;5052595;28;20121;-81
2023/09/21 02:57:28;;;;;;;3.38;1.33;;;;;;;20.61;53.56;98358.00;5052266;28;20053;-80
2023/09/21 02:59:53;;;;;;;4.40;1.73;;;;;;;20.68;53.63;98353.75;5052565;28;20012;-81
2023/09/21 03:02:18;;;;;;;3.87;1.53;;;;;;;20.73;53.50;98351.47;5052849;28;20039;-81
2023/09/21 03:04:45;;;;;;;3.08;1.40;;;;;;;20.67;53.91;98349.38;5052508;28;20266;-81
2023/09/21 03:07:13;;;;;;;4.57;2.17;;;;;;;20.62;53.76;98343.00;5052597;28;20029;-81
2023/09/21 03:09:38;;;;;;;6.57;1.45;;;;;;;20.60;54.16;98350.88;5052746;28;20467;-81
2023/09/21 03:12:03;;;;;;;3.03;1.67;;;;;;;20.69;54.00;98335.97;5051226;28;20072;-81
2023/09/21 03:14:29;;;;;;;5.22;1.80;;;;;;;20.64;53.98;98332.31;5055162;28;20025;-80
2023/09/21 03:16:54;;;;;;;4.90;1.88;;;;;;;20.67;54.18;98332.75;5059470;28;20041;-81
2023/09/21 03:19:21;;;;;;;3.80;1.73;;;;;;;20.59;54.20;98331.84;5051855;28;20088;-81
2023/09/21 03:21:48;;;;;;;4.20;1.70;;;;;;;20.65;54.06;98325.63;5046151;28;20335;-79
2023/09/21 03:24:13;;;;;;;3.35;1.58;;;;;;;20.64;54.05;98332.31;5053672;28;20029;-81
2023/09/21 03:26:38;;;;;;;4.40;1.50;;;;;;;20.63;54.16;98327.97;5053499;28;21274;-80
2023/09/21 03:29:08;;;;;;;5.27;2.03;;;;;;;20.58;54.37;98330.25;5058859;28;20270;-81
2023/09/21 03:31:33;;;;;;;3.95;1.20;;;;;;;20.57;54.63;98323.09;5058128;28;20253;-80
2023/09/21 03:34:02;;;;;;;3.35;1.35;;;;;;;20.51;54.49;98314.31;5056559;28;20199;-81
2023/09/21 03:36:27;;;;;;;4.25;1.42;;;;;;;20.52;54.50;98310.38;5057682;28;20599;-81
2023/09/21 03:38:55;;;;;;;5.90;2.08;;;;;;;20.53;54.77;98311.97;5053798;28;20104;-81
2023/09/21 03:41:20;;;;;;;3.95;1.88;;;;;;;20.46;55.00;98303.56;5055764;28;20029;-80
2023/09/21 03:43:45;;;;;;;6.20;1.90;;;;;;;20.42;55.02;98293.19;5055389;28;20699;-81
2023/09/21 03:46:11;;;;;;;5.57;1.90;;;;;;;20.40;55.13;98292.75;5055464;28;20257;-81
2023/09/21 03:48:37;;;;;;;3.30;1.65;;;;;;;20.38;55.26;98284.03;5055144;28;20028;-80
2023/09/21 03:51:03;;;;;;;4.80;1.92;;;;;;;20.39;55.12;98280.13;5055688;28;20124;-80
2023/09/21 03:53:28;;;;;;;6.47;1.88;;;;;;;20.37;55.30;98276.09;5054844;28;20059;-81
2023/09/21 03:55:56;;;;;;;5.63;1.67;;;;;;;20.36;55.25;98269.75;5060881;28;20036;-80
2023/09/21 03:58:21;;;;;;;4.15;1.80;;;;;;;20.41;55.09;98263.94;5055560;28;20553;-81
2023/09/21 04:00:47;;;;;;;3.75;1.20;;;;;;;20.48;55.00;98265.25;5056602;28;20036;-80
2023/09/21 04:03:12;;;;;;;3.70;1.52;;;;;;;20.43;54.91;98263.56;5055319;28;20051;-81
2023/09/21 04:05:40;;;;;;;4.38;2.22;;;;;;;20.50;54.75;98268.44;5054663;28;21226;-81
2023/09/21 04:08:06;;;;;;;4.13;1.50;;;;;;;20.34;55.51;98255.50;5055445;28;20104;-82
2023/09/21 04:10:32;;;;;;;5.07;1.65;;;;;;;20.34;55.18;98247.19;5055481;28;20029;-82
2023/09/21 04:12:58;;;;;;;4.50;1.77;;;;;;;20.45;54.90;98254.88;5057067;28;20098;-83
2023/09/21 04:15:27;;;;;;;5.05;1.83;;;;;;;20.41;55.10;98255.63;5053911;28;20037;-82
2023/09/21 04:17:53;;;;;;;3.50;1.60;;;;;;;20.45;55.00;98249.34;5055333;28;20170;-82
2023/09/21 04:20:19;;;;;;;4.00;1.25;;;;;;;20.51;54.82;98248.69;5054718;28;20036;-82
2023/09/21 04:22:46;;;;;;;5.13;1.65;;;;;;;20.46;54.94;98246.22;5053068;28;21203;-82
2023/09/21 04:25:14;;;;;;;6.47;2.10;;;;;;;20.45;55.08;98243.81;5054461;28;20040;-82
2023/09/21 04:27:41;;;;;;;3.13;1.40;;;;;;;20.36;54.93;98241.31;5052911;28;20021;-82
2023/09/21 04:30:09;;;;;;;6.78;1.52;;;;;;;20.27;55.52;98245.13;5053941;28;20036;-81
2023/09/21 04:32:38;;;;;;;6.82;1.90;;;;;;;20.36;55.23;98228.25;5049838;28;20078;-81
2023/09/21 04:35:05;;;;;;;6.18;1.67;;;;;;;20.46;55.14;98231.59;5054397;28;20451;-81
2023/09/21 04:37:35;;;;;;;6.15;2.13;;;;;;;20.48;55.07;98237.56;5054258;28;20025;-82
2023/09/21 04:40:09;;;;;;;4.32;1.48;;;;;;;20.33;55.13;98231.78;5041825;28;20162;-82
2023/09/21 04:42:38;;;;;;;3.88;1.95;;;;;;;20.28;55.45;98232.06;5053749;28;20029;-81
2023/09/21 04:45:09;;;;;;;3.63;1.75;;;;;;;20.32;55.65;98223.84;5054169;28;20115;-81
2023/09/21 04:47:42;;;;;;;6.05;2.05;;;;;;;20.27;55.62;98222.19;5054299;28;20021;-81
2023/09/21 04:50:11;;;;;;;4.90;1.70;;;;;;;20.34;54.97;98227.81;5054116;28;20047;-82
2023/09/21 04:52:37;;;;;;;7.13;1.50;;;;;;;20.33;55.33;98228.19;5048018;28;20371;-81
2023/09/21 04:55:04;;;;;;;5.40;1.65;;;;;;;20.36;55.05;98217.19;5048255;28;20058;-81
2023/09/21 04:57:30;;;;;;;3.95;1.48;;;;;;;20.30;55.36;98215.91;5052486;28;20470;-81
2023/09/21 04:59:56;;;;;;;4.50;1.67;;;;;;;20.27;55.24;98222.19;5052422;28;20416;-82
2023/09/21 05:02:22;;;;;;;4.47;1.73;;;;;;;20.34;55.48;98211.22;5051395;28;20028;-80
2023/09/21 05:04:47;;;;;;;6.25;1.63;;;;;;;20.41;55.11;98216.91;5049938;28;20032;-82
2023/09/21 05:07:14;;;;;;;8.05;1.67;;;;;;;20.29;55.22;98214.31;5048585;28;20124;-82
2023/09/21 05:09:40;;;;;;;4.30;1.95;;;;;;;20.22;55.95;98209.44;5044582;28;20068;-81
2023/09/21 05:12:06;;;;;;;3.80;1.30;;;;;;;20.24;55.82;98206.31;5047843;28;20108;-82
2023/09/21 05:14:32;;;;;;;6.35;2.05;;;;;;;20.24;55.75;98220.16;5052989;28;20562;-84
2023/09/21 05:16:58;;;;;;;3.83;1.95;;;;;;;20.31;55.62;98223.03;5051571;28;20437;-82
2023/09/21 05:19:24;;;;;;;3.67;1.27;;;;;;;20.29;56.03;98217.88;5051432;28;20029;-82
2023/09/21 05:21:49;;;;;;;6.82;1.92;;;;;;;20.28;56.04;98218.22;5050822;28;20025;-80
2023/09/21 05:24:15;;;;;;;5.60;2.30;;;;;;;20.12;55.95;98216.38;5052016;28;20059;-82
2023/09/21 05:26:40;;;;;;;6.97;1.83;;;;;;;20.17;56.21;98232.69;5053426;28;20075;-82
2023/09/21 05:29:06;;;;;;;6.43;1.70;;;;;;;20.14;56.49;98219.59;5051402;28;20712;-82
2023/09/21 05:31:31;;;;;;;5.15;2.00;;;;;;;20.13;56.50;98222.72;5049129;28;21169;-82
2023/09/21 05:33:57;;;;;;;3.60;1.60;;;;;;;20.14;56.65;98225.13;5044033;28;20037;-82
2023/09/21 05:36:22;;;;;;;5.88;1.83;;;;;;;20.14;56.54;98233.41;5048408;28;20368;-82
2023/09/21 05:38:48;;;;;;;4.10;1.67;;;;;;;20.12;56.87;98235.75;5051914;28;20051;-82
2023/09/21 05:41:13;;;;;;;5.85;1.50;;;;;;;20.14;56.95;98241.72;5052042;28;20100;-82
2023/09/21 05:43:40;;;;;;;4.03;1.60;;;;;;;20.18;56.91;98237.06;5051748;28;20062;-82
2023/09/21 05:46:05;;;;;;;5.13;1.85;;;;;;;20.23;56.97;98238.72;5050771;28;20055;-82
2023/09/21 05:48:32;;;;;;;4.25;1.67;;;;;;;20.26;57.05;98237.97;5051214;28;20033;-81
2023/09/21 05:50:57;;;;;;;7.18;2.15;;;;;;;20.20;56.95;98246.97;5051187;28;20033;-81
2023/09/21 05:53:22;;;;;;;4.88;1.52;;;;;;;20.17;57.38;98248.50;5053380;28;20075;-81
2023/09/21 05:55:48;;;;;;;3.95;1.55;;;;;;;20.18;57.04;98250.88;5046794;28;20037;-81
2023/09/21 05:58:13;;;;;;;4.10;1.48;;;;;;;20.13;57.19;98265.03;5053395;28;20043;-81
2023/09/21 06:00:40;;;;;;;7.85;1.88;;;;;;;20.09;57.55;98261.38;5053352;28;20036;-80
2023/09/21 06:03:06;;;;;;;4.47;1.88;;;;;;;20.05;57.95;98255.75;5052770;28;20021;-81
2023/09/21 06:05:31;;;;;;;5.05;1.85;;;;;;;20.11;57.79;98259.06;5052251;28;20107;-81
2023/09/21 06:07:58;;;;;;;6.77;2.27;;;;;;;20.09;58.09;98260.59;5052547;28;20029;-81
2023/09/21 06:10:23;;;;;;;7.75;2.38;;;;;;;20.17;57.48;98252.06;5052872;28;20298;-81
2023/09/21 06:12:50;;;;;;;6.00;1.50;;;;;;;20.18;57.74;98250.88;5053216;28;20113;-85
2023/09/21 06:15:16;;;;;;;4.78;1.80;;;;;;;20.11;58.04;98247.19;5052622;28;20536;-84
2023/09/21 06:17:41;;;;;;;4.90;1.95;;;;;;;20.18;58.25;98248.13;5049257;28;20040;-72
2023/09/21 06:20:07;;;;;;;4.60;1.88;;;;;;;20.20;57.96;98235.91;5050996;28;20693;-83
2023/09/21 06:22:32;;;;;;;4.90;2.13;;;;;;;20.30;58.07;98238.84;5048522;28;20474;-82
2023/09/21 06:24:59;;;;;;;5.70;1.95;;;;;;;20.37;57.71;98246.47;5047896;28;20040;-83
2023/09/21 06:27:25;;;;;;;5.25;2.28;;;;;;;20.39;57.60;98244.13;5050249;28;20033;-83
2023/09/21 06:29:50;;;;;;;5.07;2.15;;;;;;;20.39;57.81;98252.44;5052143;28;20055;-82
2023/09/21 06:32:18;;;;;;;6.60;1.93;;;;;;;20.37;58.12;98238.19;5051773;28;20064;-82
2023/09/21 06:34:43;;;;;;;5.65;2.40;;;;;;;20.42;57.91;98235.09;5051967;28;20783;-81
2023/09/21 06:37:09;;;;;;;3.90;1.73;;;;;;;20.36;58.07;98236.56;5053562;28;20028;-81
2023/09/21 06:39:34;;;;;;;6.00;1.67;;;;;;;20.36;58.19;98231.03;5052144;28;20078;-81
2023/09/21 06:41:59;;;;;;;3.85;1.75;;;;;;;20.41;58.33;98233.50;5051795;28;20029;-81
2023/09/21 06:44:28;;;;;;;6.78;1.63;;;;;;;20.34;58.45;98232.59;5050307;28;20036;-82
2023/09/21 06:46:54;;;;;;;5.82;2.33;;;;;;;20.41;58.62;98225.19;5050935;28;20029;-81
2023/09/21 06:49:21;;;;;;;5.20;2.20;;;;;;;20.54;58.62;98225.00;5055127;28;20031;-81
2023/09/21 06:51:46;;;;;;;3.60;1.48;;;;;;;20.48;58.35;98232.81;5052679;28;20677;-81
2023/09/21 06:54:12;;;;;;;6.03;2.13;;;;;;;20.52;58.61;98239.19;5054798;28;20075;-81
2023/09/21 06:56:37;;;;;;;3.50;1.50;;;;;;;20.50;58.71;98222.16;5055292;28;20063;-80
2023/09/21 06:59:06;;;;;;;3.60;1.63;;;;;;;20.50;58.97;98235.22;5050176;28;20106;-80
2023/09/21 07:01:32;;;;;;;4.20;2.00;;;;;;;20.64;58.71;98229.13;5048099;28;20397;-79
2023/09/21 07:03:57;;;;;;;11.82;3.20;;;;;;;20.63;58.78;98228.31;5050578;28;20025;-81
2023/09/21 07:06:22;;;;;;;4.07;2.10;;;;;;;20.52;58.96;98216.28;5051131;28;20049;-75
2023/09/21 07:08:48;;;;;;;10.13;1.97;;;;;;;20.62;59.03;98226.72;5046911;28;21355;-75
2023/09/21 07:11:15;;;;;;;3.83;2.20;;;;;;;20.69;59.18;98225.22;5046156;28;20269;-75
2023/09/21 07:13:42;;;;;;;14.25;2.92;;;;;;;20.62;58.96;98215.66;5046237;28;20033;-75
2023/09/21 07:16:08;;;;;;;7.28;2.30;;;;;;;20.69;59.34;98211.38;5047020;28;20056;-77
2023/09/21 07:18:33;;;;;;;3.80;1.75;;;;;;;20.59;59.35;98202.53;5047168;28;20394;-76
2023/09/21 07:20:59;;;;;;;4.43;1.67;;;;;;;20.61;59.70;98202.97;5048579;28;20061;-75
2023/09/21 07:23:24;;;;;;;9.85;2.03;;;;;;;20.76;59.63;98194.91;5047881;28;20071;-74
2023/09/21 07:25:49;;;;;;;6.80;2.57;;;;;;;20.81;59.09;98200.09;5045676;28;20037;-74
2023/09/21 07:28:15;;;;;;;3.13;1.45;;;;;;;20.84;59.24;98210.44;5046220;28;20755;-74
2023/09/21 07:30:41;;;;;;;4.80;1.98;;;;;;;20.87;59.75;98209.69;5045747;28;20037;-75
2023/09/21 07:33:06;;;;;;;11.93;2.42;;;;;;;20.88;59.85;98203.00;5045334;28;20312;-74
2023/09/21 07:35:32;;;;;;;5.78;2.65;;;;;;;21.01;59.68;98207.56;5045182;28;20124;-76
2023/09/21 07:37:57;;;;;;;8.63;2.00;;;;;;;21.03;59.47;98211.53;5045694;28;20037;-74
2023/09/21 07:40:22;;;;;;;4.45;1.90;;;;;;;21.04;59.53;98213.13;5045289;28;20266;-74
2023/09/21 07:42:50;;;;;;;9.02;3.30;;;;;;;21.05;59.37;98214.72;5044403;28;20036;-74
2023/09/21 07:45:16;;;;;;;15.48;3.28;;;;;;;21.04;59.73;98212.31;5044922;28;20451;-78
2023/09/21 07:47:41;;;;;;;4.78;1.63;;;;;;;21.10;59.44;98216.38;5045013;28;20174;-79
2023/09/21 07:50:07;;;;;;;3.28;1.20;;;;;;;21.20;59.66;98220.47;5045424;28;20471;-79
2023/09/21 07:52:33;;;;;;;3.45;1.75;;;;;;;21.28;59.56;98215.81;5045633;28;21128;-80
2023/09/21 07:54:59;;;;;;;7.55;2.38;;;;;;;21.37;59.24;98219.13;5045269;28;20372;-80
2023/09/21 07:57:25;;;;;;;11.10;2.25;;;;;;;21.41;59.77;98219.97;5043342;28;20176;-80
2023/09/21 07:59:50;;;;;;;7.57;3.28;;;;;;;21.50;59.51;98233.53;5045294;28;20040;-79
2023/09/21 08:02:16;;;;;;;11.15;3.08;;;;;;;21.52;59.74;98225.63;5045569;28;20490;-81
2023/09/21 08:04:41;;;;;;;6.68;2.38;;;;;;;21.45;59.42;98225.56;5045110;28;20044;-80
2023/09/21 08:07:07;;;;;;;4.93;1.83;;;;;;;21.34;59.59;98231.75;5044629;28;20071;-80
2023/09/21 08:09:32;;;;;;;3.33;1.53;;;;;;;21.53;60.01;98241.09;5045701;28;20364;-80
2023/09/21 08:11:58;;;;;;;7.95;2.25;;;;;;;21.58;59.47;98231.66;5044766;28;20360;-80
2023/09/21 08:14:25;;;;;;;5.55;2.03;;;;;;;21.66;59.26;98229.78;5045094;28;20025;-80
2023/09/21 08:16:53;;;;;;;5.10;2.25;;;;;;;21.69;59.82;98229.00;5045239;28;20131;-80
2023/09/21 08:19:19;;;;;;;9.07;3.47;;;;;;;21.78;59.66;98243.38;5043047;28;20041;-80
2023/09/21 08:21:44;;;;;;;4.03;1.92;;;;;;;21.79;59.53;98220.00;5045395;28;20028;-80
2023/09/21 08:24:10;;;;;;;6.78;2.10;;;;;;;21.86;59.62;98235.16;5043254;28;20048;-73
2023/09/21 08:26:37;;;;;;;12.65;2.35;;;;;;;21.84;59.77;98234.75;5044727;28;20560;-73
2023/09/21 08:29:02;;;;;;;3.45;1.80;;;;;;;21.96;59.58;98237.28;5044534;28;20032;-74
2023/09/21 08:31:28;;;;;;;6.05;2.38;;;;;;;21.92;59.44;98225.34;5044311;28;20094;-74
2023/09/21 08:33:54;;;;;;;7.00;1.92;;;;;;;21.97;59.62;98238.84;5044722;28;20033;-72
2023/09/21 08:36:19;;;;;;;5.93;2.30;;;;;;;21.97;59.69;98241.63;5044348;28;20124;-72
2023/09/21 08:38:45;;;;;;;5.22;2.45;;;;;;;22.17;59.10;98246.97;5044607;28;20041;-73
2023/09/21 08:41:11;;;;;;;5.70;2.17;;;;;;;22.16;58.87;98250.94;5043884;28;20615;-71
2023/09/21 08:43:37;;;;;;;4.13;1.63;;;;;;;22.25;59.25;98247.88;5043735;28;20502;-73
2023/09/21 08:46:03;;;;;;;10.60;2.13;;;;;;;22.35;58.58;98244.38;5043649;28;20033;-72
2023/09/21 08:48:31;;;;;;;7.53;2.55;;;;;;;22.35;58.20;98246.38;5044068;28;20041;-73
2023/09/21 08:51:00;;;;;;;3.20;1.65;;;;;;;22.28;58.58;98241.53;5043707;28;20091;-71
2023/09/21 08:53:26;;;;;;;5.78;1.70;;;;;;;22.33;58.20;98254.28;5043013;28;20033;-72
2023/09/21 08:55:56;;;;;;;3.65;1.83;;;;;;;22.39;58.28;98253.53;5043840;28;20044;-73
2023/09/21 08:58:27;;;;;;;5.53;2.55;;;;;;;22.35;58.63;98249.94;5043925;28;20039;-72
2023/09/21 09:00:54;;;;;;;4.82;2.05;;;;;;;22.31;58.41;98267.75;5043715;28;20297;-73
2023/09/21 09:03:27;;;;;;;5.15;2.20;;;;;;;22.18;58.51;98254.13;5044819;28;20037;-72
2023/09/21 09:05:55;;;;;;;4.10;2.00;;;;;;;22.32;58.88;98258.22;5044662;28;20103;-73
2023/09/21 09:08:22;;;;;;;3.90;1.73;;;;;;;22.41;58.77;98261.50;5044201;28;20087;-73
2023/09/21 09:10:47;;;;;;;3.72;1.90;;;;;;;22.57;58.32;98261.25;5043440;28;20043;-71
2023/09/21 09:13:13;;;;;;;4.35;1.90;;;;;;;22.43;58.23;98248.03;5044080;28;20025;-72
2023/09/21 09:15:41;;;;;;;4.18;1.90;;;;;;;22.58;58.06;98264.81;5042506;28;20596;-72
2023/09/21 09:18:07;;;;;;;6.20;1.80;;;;;;;22.50;57.69;98258.41;5044135;28;20068;-72
2023/09/21 09:20:36;;;;;;;4.70;1.85;;;;;;;22.58;57.45;98260.06;5043984;28;20029;-73
2023/09/21 09:23:10;;;;;;;7.90;2.28;;;;;;;22.65;57.73;98264.91;5043793;28;20127;-71
2023/09/21 09:25:36;;;;;;;4.70;1.70;;;;;;;22.82;57.78;98263.44;5043864;28;20064;-71
2023/09/21 09:28:03;;;;;;;3.97;1.77;;;;;;;22.80;57.35;98259.47;5044056;28;20041;-71
2023/09/21 09:30:29;;;;;;;10.40;2.35;;;;;;;22.96;56.98;98268.31;5043240;28;20040;-71
2023/09/21 09:32:55;;;;;;;6.65;2.33;;;;;;;22.73;57.32;98269.34;5043595;28;20025;-71
2023/09/21 09:35:21;;;;;;;4.25;1.95;;;;;;;22.76;57.61;98264.22;5043183;28;20037;-71
2023/09/21 09:37:47;;;;;;;10.70;2.45;;;;;;;22.68;57.32;98263.34;5043161;28;20043;-71
2023/09/21 09:40:13;;;;;;;6.55;1.58;;;;;;;22.78;57.36;98267.41;5042909;28;20041;-71
2023/09/21 09:42:40;;;;;;;4.97;2.13;;;;;;;22.86;57.48;98263.50;5042921;28;20039;-71
2023/09/21 09:45:16;;;;;;;4.18;2.10;;;;;;;23.03;57.31;98262.03;5043118;28;20029;-71
2023/09/21 09:47:48;;;;;;;4.72;1.75;;;;;;;23.06;56.91;98249.34;5043152;28;20293;-71
2023/09/21 09:50:17;;;;;;;4.07;1.67;;;;;;;23.11;56.79;98257.31;5043506;28;20032;-71
2023/09/21 09:52:49;;;;;;;5.95;2.45;;;;;;;23.10;56.95;98255.72;5043393;28;20025;-70
2023/09/21 09:55:15;;;;;;;5.95;2.15;;;;;;;23.31;56.85;98243.91;5042773;28;20056;-72
2023/09/21 09:57:45;;;;;;;3.90;1.73;;;;;;;23.30;56.66;98235.97;5043605;28;20166;-72
2023/09/21 10:00:22;;;;;;;3.70;1.52;;;;;;;23.40;56.22;98240.00;5043292;28;20037;-71
2023/09/21 10:02:49;;;;;;;2.80;1.45;;;;;;;23.51;55.96;98245.66;5042082;28;20048;-71
2023/09/21 10:05:19;;;;;;;9.10;2.40;;;;;;;23.49;56.33;98245.25;5042203;28;20135;-71
2023/09/21 10:07:45;;;;;;;4.95;1.50;;;;;;;23.44;56.25;98252.78;5043243;28;20075;-71
2023/09/21 10:10:15;;;;;;;7.28;1.42;;;;;;;23.54;56.31;98247.63;5042837;28;20544;-72
2023/09/21 10:12:42;;;;;;;4.65;1.83;;;;;;;23.64;55.75;98249.69;5043141;28;20031;-71
2023/09/21 10:15:13;;;;;;;4.15;2.03;;;;;;;23.66;55.99;98246.50;5043026;28;20036;-72
2023/09/21 10:17:38;;;;;;;4.43;1.65;;;;;;;23.62;56.19;98256.81;5043067;28;20043;-72
2023/09/21 10:20:14;;;;;;;4.83;1.73;;;;;;;23.72;56.11;98258.84;5043096;28;20048;-71
2023/09/21 10:22:44;;;;;;;5.03;1.83;;;;;;;23.60;55.76;98264.75;5041179;28;20325;-71
2023/09/21 10:25:12;;;;;;;6.40;1.83;;;;;;;23.47;55.85;98242.06;5042361;28;20048;-71
2023/09/21 10:27:38;;;;;;;7.45;2.38;;;;;;;23.49;56.15;98251.63;5040937;28;20040;-71
2023/09/21 10:30:08;;;;;;;2.85;1.40;;;;;;;23.54;56.38;98250.41;5041909;28;20044;-71
2023/09/21 10:32:48;;;;;;;5.97;1.55;;;;;;;23.53;55.72;98249.63;5042928;28;20037;-72
2023/09/21 10:35:44;;;;;;;2.90;1.38;;;;;;;23.51;56.03;98251.22;5042317;28;20045;-71
2023/09/21 10:38:13;;;;;;;5.78;2.58;;;;;;;23.47;56.74;98250.41;5042997;28;20036;-72
2023/09/21 10:40:40;;;;;;;7.38;2.17;;;;;;;23.36;56.56;98256.66;5042590;28;20307;-73
2023/09/21 10:43:37;;;;;;;5.80;2.05;;;;;;;23.28;56.63;98246.69;5042826;28;20064;-71
2023/09/21 10:46:05;;;;;;;4.45;1.48;;;;;;;23.18;57.00;98246.25;5042564;28;20044;-72
2023/09/21 10:48:31;;;;;;;3.90;1.38;;;;;;;23.18;57.01;98226.00;5041856;28;20139;-72
2023/09/21 10:50:56;;;;;;;4.65;2.38;;;;;;;23.23;57.29;98224.84;5042236;28;20116;-71
2023/09/21 10:53:23;;;;;;;4.78;2.42;;;;;;;23.27;57.25;98225.66;5042355;28;20060;-71
2023/09/21 10:55:49;;;;;;;4.18;2.28;;;;;;;23.08;57.52;98222.78;5042523;28;20464;-71
2023/09/21 10:58:17;;;;;;;5.97;1.92;;;;;;;23.10;57.86;98211.25;5042666;28;20041;-79
2023/09/21 11:00:43;;;;;;;28.50;3.33;;;;;;;23.19;57.48;98214.47;5042565;28;20060;-72
2023/09/21 11:03:13;;;;;;;4.68;2.22;;;;;;;23.27;58.05;98206.19;5042528;28;20037;-72
2023/09/21 11:05:38;;;;;;;5.15;1.52;;;;;;;23.41;57.96;98209.03;5041800;28;20080;-72
2023/09/21 11:08:04;;;;;;;3.03;1.55;;;;;;;23.50;57.44;98210.69;5042831;28;20133;-69
2023/09/21 11:10:31;;;;;;;5.03;2.20;;;;;;;23.44;57.27;98207.44;5042110;28;20043;-69
2023/09/21 11:12:57;;;;;;;5.47;2.15;;;;;;;23.33;57.51;98205.41;5041397;28;20037;-70
2023/09/21 11:15:22;;;;;;;5.32;1.92;;;;;;;23.35;57.06;98205.03;5042085;28;20040;-75
2023/09/21 11:17:48;;;;;;;5.25;2.08;;;;;;;23.40;57.34;98195.50;5042286;28;20502;-74
2023/09/21 11:20:17;;;;;;;4.25;2.13;;;;;;;23.41;57.25;98200.69;5042218;28;20045;-75
2023/09/21 11:22:44;;;;;;;5.22;2.50;;;;;;;23.20;57.65;98199.41;5042530;28;20029;-75
2023/09/21 11:25:11;;;;;;;4.05;2.03;;;;;;;23.30;57.98;98213.75;5041646;28;20063;-75
2023/09/21 11:27:38;;;;;;;5.32;2.45;;;;;;;23.39;57.79;98200.28;5042022;28;20740;-75
2023/09/21 11:30:08;;;;;;;4.20;2.08;;;;;;;23.61;56.70;98207.94;5042330;28;20053;-75
2023/09/21 11:32:46;;;;;;;4.97;2.17;;;;;;;23.71;56.55;98193.28;5042208;28;20040;-75